Maurilandia do Tocantins, Brazil
Current Conditions -  °F | °C
As of 6:00 AM on Sunday 23 Nov 2014 (Local Time) from SBIZ Reporting Station
Overcast Overcast  
Wind Chill: 79°   Ceiling: 1500
Heat Index: 82°   Visibility: 6mi
Dew Point: 73°   Wind: 6mph
Humidity: 83%   Direction: 90°E
Pressure: 29.83"   Gusts: NA
Location:  5.95°S, 47.51°W
Report Text: SBIZ 230900Z 09005KT 9999 OVC015 26/23 Q1010
Loading
Personal Weather Stations






























Interactive Weather Map New forecast layout! Learn more

10-Day Weather Forecast

Advertisements
Track Severe Weather on mobile